createdAt,value
2018-03-22T00:01:00.701Z,96.70
2018-03-22T00:02:03.929Z,96.80
2018-03-22T00:03:07.175Z,96.60
2018-03-22T00:04:10.394Z,96.80
2018-03-22T00:05:13.768Z,96.80
2018-03-22T00:06:16.991Z,96.70
2018-03-22T00:07:21.020Z,96.90
2018-03-22T00:08:24.250Z,96.90
2018-03-22T00:09:27.514Z,96.90
2018-03-22T00:10:30.737Z,97.00
2018-03-22T00:11:34.812Z,97.10
2018-03-22T00:12:38.032Z,97.00
2018-03-22T00:13:41.262Z,96.90
2018-03-22T00:14:44.582Z,96.90
2018-03-22T00:15:47.806Z,96.80
2018-03-22T00:16:51.080Z,96.90
2018-03-22T00:17:54.317Z,97.00
2018-03-22T00:18:57.570Z,97.00
2018-03-22T00:20:00.838Z,97.10
2018-03-22T00:21:04.808Z,97.10
2018-03-22T00:22:18.639Z,97.00
2018-03-22T00:23:22.653Z,97.10
2018-03-22T00:24:25.893Z,96.90
2018-03-22T00:25:29.132Z,96.80
2018-03-22T00:26:32.350Z,96.80
2018-03-22T00:27:35.571Z,96.80
2018-03-22T00:28:39.609Z,97.20
2018-03-22T00:29:42.837Z,96.90
2018-03-22T00:30:46.070Z,96.70
2018-03-22T00:31:49.348Z,96.80
2018-03-22T00:32:52.587Z,97.00
2018-03-22T00:33:55.821Z,97.10
2018-03-22T00:34:59.125Z,97.20
2018-03-22T00:36:02.389Z,97.20
2018-03-22T00:37:05.652Z,97.30
2018-03-22T00:38:08.905Z,97.30
2018-03-22T00:39:12.922Z,97.50
2018-03-22T00:40:16.960Z,97.20
2018-03-22T00:41:20.200Z,97.20
2018-03-22T00:42:24.254Z,97.10
2018-03-22T00:43:27.513Z,97.10
2018-03-22T00:44:30.729Z,97.30
2018-03-22T00:45:34.030Z,97.20
2018-03-22T00:46:37.357Z,97.20
2018-03-22T00:47:40.662Z,97.10
2018-03-22T00:48:43.939Z,97.10
2018-03-22T00:49:47.155Z,97.00
2018-03-22T00:50:50.509Z,96.80
2018-03-22T00:51:53.719Z,96.70
2018-03-22T00:52:56.982Z,96.70
2018-03-22T00:54:00.370Z,96.80
2018-03-22T00:55:03.666Z,96.90
2018-03-22T00:56:06.925Z,96.90
2018-03-22T00:57:10.152Z,96.80
2018-03-22T00:58:13.389Z,96.90
2018-03-22T00:59:16.625Z,97.00
2018-03-22T01:00:19.862Z,97.00
2018-03-22T01:01:23.161Z,97.00
2018-03-22T01:02:26.397Z,97.00
2018-03-22T01:03:30.386Z,96.90
2018-03-22T01:04:34.380Z,96.80
2018-03-22T01:05:37.616Z,96.70
2018-03-22T01:06:40.839Z,96.80
2018-03-22T01:07:44.061Z,96.80
2018-03-22T01:08:47.286Z,96.80
2018-03-22T01:09:50.523Z,96.80
2018-03-22T01:10:54.523Z,96.90
2018-03-22T01:11:58.519Z,96.70
2018-03-22T01:13:01.770Z,96.70
2018-03-22T01:14:04.994Z,96.80
2018-03-22T01:15:08.222Z,96.60
2018-03-22T01:16:11.460Z,96.60
2018-03-22T01:17:14.690Z,96.60
2018-03-22T01:18:17.925Z,96.60
2018-03-22T01:19:21.167Z,96.60
2018-03-22T01:20:24.404Z,96.70
2018-03-22T01:21:27.617Z,96.70
2018-03-22T01:22:30.837Z,96.90
2018-03-22T01:23:34.834Z,96.90
2018-03-22T01:24:38.844Z,96.80
2018-03-22T01:25:42.816Z,96.70
2018-03-22T01:26:46.068Z,96.70
2018-03-22T01:27:49.301Z,96.50
2018-03-22T01:28:52.531Z,96.70
2018-03-22T01:29:55.758Z,96.60
2018-03-22T01:30:59.259Z,96.80
2018-03-22T01:32:02.469Z,96.90
2018-03-22T01:33:05.734Z,96.90
2018-03-22T01:34:08.987Z,96.90
2018-03-22T01:35:12.198Z,97.00
2018-03-22T01:36:16.222Z,97.00
2018-03-22T01:37:19.512Z,96.90
2018-03-22T01:38:23.646Z,96.80
2018-03-22T01:39:26.898Z,96.80
2018-03-22T01:40:30.182Z,96.90
2018-03-22T01:41:33.418Z,97.10
2018-03-22T01:42:37.573Z,97.30
2018-03-22T01:43:40.798Z,97.10
2018-03-22T01:44:44.034Z,97.00
2018-03-22T01:45:47.295Z,96.90
2018-03-22T01:46:50.544Z,97.00
2018-03-22T01:47:53.772Z,97.00
2018-03-22T01:48:57.171Z,97.10
2018-03-22T01:50:00.409Z,97.10
2018-03-22T01:51:03.625Z,96.90
2018-03-22T01:52:06.862Z,97.00
2018-03-22T01:53:14.787Z,97.00
2018-03-22T01:54:18.838Z,97.10
2018-03-22T01:55:22.049Z,97.10
2018-03-22T01:56:25.381Z,97.00
2018-03-22T01:57:28.628Z,97.10
2018-03-22T01:58:32.606Z,97.10
2018-03-22T01:59:35.835Z,97.10
2018-03-22T02:00:39.617Z,97.20
2018-03-22T02:01:43.626Z,97.10
2018-03-22T02:02:46.857Z,97.10
2018-03-22T02:03:50.152Z,96.90
2018-03-22T02:04:53.377Z,96.70
2018-03-22T02:05:56.620Z,96.70
2018-03-22T02:06:59.836Z,96.80
2018-03-22T02:08:03.095Z,96.90
2018-03-22T02:09:06.422Z,96.80
2018-03-22T02:10:10.413Z,96.90
2018-03-22T02:11:14.406Z,96.90
2018-03-22T02:12:17.627Z,96.80
2018-03-22T02:13:20.840Z,96.90
2018-03-22T02:14:24.158Z,96.80
2018-03-22T02:15:28.155Z,97.10
2018-03-22T02:16:31.365Z,97.10
2018-03-22T02:17:34.608Z,97.00
2018-03-22T02:18:38.644Z,96.90
2018-03-22T02:19:41.911Z,96.90
2018-03-22T02:20:45.152Z,96.90
2018-03-22T02:21:48.389Z,96.90
2018-03-22T02:22:51.862Z,96.80
2018-03-22T02:23:55.930Z,96.70
2018-03-22T02:25:00.794Z,96.70
2018-03-22T02:26:04.128Z,96.70
2018-03-22T02:27:07.366Z,96.70
2018-03-22T02:28:10.625Z,96.70
2018-03-22T02:29:14.618Z,96.60
2018-03-22T02:30:18.797Z,96.60
2018-03-22T02:31:22.035Z,96.50
2018-03-22T02:32:25.354Z,96.80
2018-03-22T02:33:28.595Z,96.80
2018-03-22T02:34:31.861Z,96.80
2018-03-22T02:35:35.852Z,97.00
2018-03-22T02:36:39.217Z,97.10
2018-03-22T02:37:42.427Z,97.20
2018-03-22T02:38:46.427Z,97.10
2018-03-22T02:39:50.420Z,97.10
2018-03-22T02:40:53.638Z,97.10
2018-03-22T02:41:56.870Z,97.30
2018-03-22T02:43:00.143Z,97.40
2018-03-22T02:44:03.423Z,97.10
2018-03-22T02:45:06.641Z,97.00
2018-03-22T02:46:10.934Z,97.00
2018-03-22T02:47:14.175Z,97.00
2018-03-22T02:48:17.396Z,97.20
2018-03-22T02:49:20.627Z,97.20
2018-03-22T02:50:23.920Z,97.30
2018-03-22T02:51:27.138Z,97.20
2018-03-22T02:52:30.357Z,97.20
2018-03-22T02:53:34.342Z,97.30
2018-03-22T02:54:38.362Z,97.30
2018-03-22T02:55:41.567Z,97.30
2018-03-22T02:56:44.827Z,97.30
2018-03-22T02:57:48.830Z,97.00
2018-03-22T02:58:52.842Z,96.90
2018-03-22T02:59:56.074Z,96.90
2018-03-22T03:00:59.381Z,96.90
2018-03-22T03:02:02.700Z,96.90
2018-03-22T03:03:05.922Z,96.70
2018-03-22T03:04:09.153Z,96.60
2018-03-22T03:05:12.401Z,96.90
2018-03-22T03:06:15.768Z,96.90
2018-03-22T03:07:19.008Z,96.70
2018-03-22T03:08:22.295Z,96.70
2018-03-22T03:09:25.569Z,96.80
2018-03-22T03:10:29.570Z,96.70
2018-03-22T03:11:32.815Z,96.70
2018-03-22T03:12:36.040Z,96.90
2018-03-22T03:13:39.276Z,97.00
2018-03-22T03:14:42.556Z,96.80
2018-03-22T03:15:45.854Z,96.80
2018-03-22T03:16:49.072Z,97.00
2018-03-22T03:17:52.313Z,96.90
2018-03-22T03:18:55.646Z,97.00
2018-03-22T03:19:58.873Z,96.90
2018-03-22T03:21:02.116Z,96.90
2018-03-22T03:22:05.356Z,96.80
2018-03-22T03:23:10.117Z,96.70
2018-03-22T03:24:13.345Z,96.70
2018-03-22T03:25:16.601Z,96.70
2018-03-22T03:26:19.820Z,96.70
2018-03-22T03:27:23.046Z,96.70
2018-03-22T03:28:26.293Z,96.70
2018-03-22T03:29:29.538Z,96.80
2018-03-22T03:30:32.771Z,96.80
2018-03-22T03:31:36.805Z,96.70
2018-03-22T03:32:40.029Z,96.70
2018-03-22T03:33:43.252Z,96.80
2018-03-22T03:34:46.583Z,96.80
2018-03-22T03:35:49.815Z,96.70
2018-03-22T03:36:53.116Z,96.80
2018-03-22T03:37:56.390Z,96.80
2018-03-22T03:38:59.617Z,96.60
2018-03-22T03:40:02.845Z,96.40
2018-03-22T03:41:06.068Z,96.40
2018-03-22T03:42:09.302Z,96.30
2018-03-22T03:43:13.299Z,96.30
2018-03-22T03:44:17.302Z,96.40
2018-03-22T03:45:21.320Z,96.50
2018-03-22T03:46:25.416Z,96.40
2018-03-22T03:47:29.439Z,96.40
2018-03-22T03:48:32.701Z,96.40
2018-03-22T03:49:35.941Z,96.50
2018-03-22T03:50:39.147Z,96.50
2018-03-22T03:51:43.154Z,96.40
2018-03-22T03:52:46.417Z,96.20
2018-03-22T03:53:49.639Z,96.30
2018-03-22T03:54:52.902Z,96.30
2018-03-22T03:55:56.939Z,96.50
2018-03-22T03:57:00.162Z,96.50
2018-03-22T03:58:03.390Z,96.40
2018-03-22T03:59:06.632Z,96.30
2018-03-22T04:00:09.857Z,96.20
2018-03-22T04:01:13.094Z,96.10
2018-03-22T04:02:16.341Z,96.20
2018-03-22T04:03:19.632Z,96.30
2018-03-22T04:04:22.864Z,96.20
2018-03-22T04:05:26.204Z,96.20
2018-03-22T04:06:29.465Z,96.40
2018-03-22T04:07:32.739Z,96.30
2018-03-22T04:08:36.037Z,96.30
2018-03-22T04:09:39.342Z,96.40
2018-03-22T04:10:42.599Z,96.50
2018-03-22T04:11:47.822Z,96.60
2018-03-22T04:12:51.878Z,96.70
2018-03-22T04:13:55.128Z,96.70
2018-03-22T04:14:58.375Z,96.70
2018-03-22T04:16:02.390Z,96.60
2018-03-22T04:17:05.630Z,96.60
2018-03-22T04:18:08.909Z,96.40
2018-03-22T04:19:12.166Z,96.40
2018-03-22T04:20:17.545Z,96.30
2018-03-22T04:21:20.774Z,96.30
2018-03-22T04:22:24.018Z,96.20
2018-03-22T04:23:28.039Z,96.40
2018-03-22T04:24:31.293Z,96.40
2018-03-22T04:25:35.305Z,96.40
2018-03-22T04:26:39.315Z,96.40
2018-03-22T04:27:42.545Z,96.40
2018-03-22T04:28:45.809Z,96.40
2018-03-22T04:29:49.049Z,96.30
2018-03-22T04:30:53.050Z,96.40
2018-03-22T04:31:57.225Z,96.60
2018-03-22T04:33:00.415Z,96.50
2018-03-22T04:34:03.628Z,96.60
2018-03-22T04:35:06.888Z,96.50
2018-03-22T04:36:10.111Z,96.50
2018-03-22T04:37:13.334Z,96.60
2018-03-22T04:38:16.559Z,96.40
2018-03-22T04:39:20.541Z,96.50
2018-03-22T04:40:23.930Z,96.50
2018-03-22T04:41:27.160Z,96.40
2018-03-22T04:42:30.423Z,96.50
2018-03-22T04:43:33.703Z,96.80
2018-03-22T04:44:36.935Z,96.40
2018-03-22T04:45:40.158Z,96.70
2018-03-22T04:46:44.234Z,96.60
2018-03-22T04:47:47.575Z,96.60
2018-03-22T04:48:50.803Z,96.60
2018-03-22T04:49:54.032Z,96.60
2018-03-22T04:50:57.273Z,96.60
2018-03-22T04:52:00.505Z,96.80
2018-03-22T04:53:03.836Z,96.80
2018-03-22T04:54:07.086Z,96.80
2018-03-22T04:55:10.323Z,96.60
2018-03-22T04:56:14.353Z,96.50
2018-03-22T04:57:17.587Z,96.50
2018-03-22T04:58:20.820Z,96.40
2018-03-22T04:59:24.072Z,96.50
2018-03-22T05:00:28.067Z,97.10
2018-03-22T05:01:31.304Z,96.80
2018-03-22T05:02:34.531Z,96.90
2018-03-22T05:03:38.577Z,96.90
2018-03-22T05:04:41.862Z,96.80
2018-03-22T05:05:45.094Z,96.70
2018-03-22T05:06:48.337Z,96.60
2018-03-22T05:07:51.560Z,96.70
2018-03-22T05:08:54.802Z,96.80
2018-03-22T05:09:58.039Z,96.70
2018-03-22T05:11:01.273Z,96.80
2018-03-22T05:12:04.536Z,96.80
2018-03-22T05:13:07.772Z,96.60
2018-03-22T05:14:11.024Z,96.60
2018-03-22T05:15:14.235Z,96.50
2018-03-22T05:16:17.479Z,96.30
2018-03-22T05:17:20.692Z,96.30
2018-03-22T05:18:23.929Z,96.30
2018-03-22T05:19:27.240Z,96.40
2018-03-22T05:20:30.472Z,96.30
2018-03-22T05:21:33.728Z,96.30
2018-03-22T05:22:37.033Z,96.40
2018-03-22T05:23:41.005Z,96.20
2018-03-22T05:24:44.232Z,96.20
2018-03-22T05:25:47.475Z,96.20
2018-03-22T05:26:50.740Z,96.20
2018-03-22T05:27:53.994Z,96.10
2018-03-22T05:28:57.238Z,96.20
2018-03-22T05:30:01.206Z,96.10
2018-03-22T05:31:04.491Z,96.00
2018-03-22T05:32:07.706Z,96.20
2018-03-22T05:33:11.702Z,96.10
2018-03-22T05:34:15.686Z,96.10
2018-03-22T05:35:19.063Z,96.10
2018-03-22T05:36:22.260Z,96.10
2018-03-22T05:37:25.548Z,96.30
2018-03-22T05:38:28.764Z,96.30
2018-03-22T05:39:32.750Z,96.10
2018-03-22T05:40:36.772Z,96.10
2018-03-22T05:41:40.003Z,96.10
2018-03-22T05:42:43.245Z,96.10
2018-03-22T05:43:46.468Z,96.20
2018-03-22T05:44:49.728Z,96.10
2018-03-22T05:45:52.956Z,96.00
2018-03-22T05:46:57.045Z,95.90
2018-03-22T05:48:00.288Z,95.80
2018-03-22T05:49:03.531Z,95.60
2018-03-22T05:50:07.617Z,95.60
2018-03-22T05:51:10.836Z,95.50
2018-03-22T05:52:14.072Z,95.50
2018-03-22T05:53:18.800Z,95.70
2018-03-22T05:54:23.560Z,95.70
2018-03-22T05:55:26.793Z,95.70
2018-03-22T05:56:30.033Z,95.60
2018-03-22T05:57:33.274Z,95.60
2018-03-22T05:58:37.268Z,95.70
2018-03-22T05:59:40.527Z,95.60
2018-03-22T06:00:43.772Z,95.60
2018-03-22T06:01:47.150Z,95.40
2018-03-22T06:02:50.395Z,95.30
2018-03-22T06:03:53.625Z,95.40
2018-03-22T06:04:56.864Z,95.30
2018-03-22T06:06:00.131Z,95.10
2018-03-22T06:07:03.355Z,95.10
2018-03-22T06:08:07.355Z,95.10
2018-03-22T06:09:10.603Z,95.10
2018-03-22T06:10:13.825Z,95.20
2018-03-22T06:11:17.815Z,95.30
2018-03-22T06:12:21.869Z,95.30
2018-03-22T06:13:25.146Z,95.30
2018-03-22T06:14:28.537Z,95.20
2018-03-22T06:15:31.828Z,95.20
2018-03-22T06:16:35.040Z,95.30
2018-03-22T06:17:39.034Z,95.40
2018-03-22T06:18:42.311Z,95.20
2018-03-22T06:19:45.637Z,95.10
2018-03-22T06:20:49.655Z,94.70
2018-03-22T06:21:52.904Z,94.70
2018-03-22T06:22:56.906Z,94.90
2018-03-22T06:24:00.883Z,94.90
2018-03-22T06:25:04.137Z,94.80
2018-03-22T06:26:07.358Z,94.80
2018-03-22T06:27:10.625Z,94.90
2018-03-22T06:28:13.857Z,94.90
2018-03-22T06:29:17.104Z,94.50
2018-03-22T06:30:20.336Z,94.60
2018-03-22T06:31:23.557Z,94.40
2018-03-22T06:32:26.796Z,94.50
2018-03-22T06:33:30.124Z,94.50
2018-03-22T06:34:33.397Z,94.70
2018-03-22T06:35:36.643Z,94.80
2018-03-22T06:36:39.874Z,94.60
2018-03-22T06:37:43.137Z,94.80
2018-03-22T06:38:46.358Z,94.50
2018-03-22T06:39:49.620Z,94.10
2018-03-22T06:40:53.067Z,94.10
2018-03-22T06:41:56.304Z,94.10
2018-03-22T06:42:59.630Z,94.20
2018-03-22T06:44:02.868Z,94.10
2018-03-22T06:45:06.118Z,94.00
2018-03-22T06:46:09.399Z,93.90
2018-03-22T06:47:12.682Z,93.80
2018-03-22T06:48:15.994Z,93.90
2018-03-22T06:49:19.218Z,94.10
2018-03-22T06:50:23.219Z,93.80
2018-03-22T06:51:27.220Z,93.70
2018-03-22T06:52:30.444Z,93.70
2018-03-22T06:53:33.705Z,93.80
2018-03-22T06:54:36.943Z,93.70
2018-03-22T06:55:40.202Z,93.60
2018-03-22T06:56:43.448Z,93.70
2018-03-22T06:57:46.681Z,93.50
2018-03-22T06:58:49.941Z,93.50
2018-03-22T06:59:53.175Z,93.40
2018-03-22T07:00:57.189Z,92.90
2018-03-22T07:02:01.201Z,93.10
2018-03-22T07:03:04.418Z,93.10
2018-03-22T07:04:07.658Z,93.00
2018-03-22T07:05:10.886Z,92.80
2018-03-22T07:06:14.119Z,92.90
2018-03-22T07:07:17.411Z,93.00
2018-03-22T07:08:20.624Z,93.00
2018-03-22T07:09:23.910Z,93.10
2018-03-22T07:10:27.149Z,93.10
2018-03-22T07:11:31.176Z,93.40
2018-03-22T07:12:34.454Z,93.30
2018-03-22T07:13:37.714Z,93.20
2018-03-22T07:14:41.706Z,92.90
2018-03-22T07:15:44.934Z,92.90
2018-03-22T07:16:48.170Z,93.20
2018-03-22T07:17:52.170Z,92.80
2018-03-22T07:18:56.161Z,92.70
2018-03-22T07:19:59.406Z,92.70
2018-03-22T07:21:02.610Z,92.80
2018-03-22T07:22:05.859Z,92.80
2018-03-22T07:23:09.098Z,92.80
2018-03-22T07:24:13.092Z,92.60
2018-03-22T07:25:16.339Z,92.60
2018-03-22T07:26:19.603Z,92.50
2018-03-22T07:27:22.824Z,92.50
2018-03-22T07:28:26.064Z,92.70
2018-03-22T07:29:29.345Z,92.70
2018-03-22T07:30:32.564Z,92.80
2018-03-22T07:31:35.818Z,92.50
2018-03-22T07:32:39.054Z,92.40
2018-03-22T07:33:42.290Z,92.00
2018-03-22T07:34:45.528Z,92.10
2018-03-22T07:35:49.520Z,92.10
2018-03-22T07:36:52.821Z,92.10
2018-03-22T07:37:56.017Z,92.00
2018-03-22T07:39:00.063Z,91.90
2018-03-22T07:40:03.284Z,91.90
2018-03-22T07:41:06.524Z,91.70
2018-03-22T07:42:09.764Z,91.60
2018-03-22T07:43:19.401Z,91.90
2018-03-22T07:44:29.224Z,91.60
2018-03-22T07:45:33.229Z,91.50
2018-03-22T07:46:36.469Z,91.40
2018-03-22T07:47:39.686Z,91.20
2018-03-22T07:48:42.962Z,91.10
2018-03-22T07:49:46.169Z,90.90
2018-03-22T07:50:49.406Z,90.60
2018-03-22T07:51:53.397Z,91.00
2018-03-22T07:52:57.422Z,90.70
2018-03-22T07:54:00.647Z,90.70
2018-03-22T07:55:03.887Z,90.70
2018-03-22T07:56:07.096Z,91.00
2018-03-22T07:57:10.375Z,91.20
2018-03-22T07:58:13.582Z,91.10
2018-03-22T07:59:16.816Z,91.00
2018-03-22T08:00:20.056Z,90.80
2018-03-22T08:01:23.375Z,90.60
2018-03-22T08:02:26.610Z,90.40
2018-03-22T08:03:29.950Z,90.80
2018-03-22T08:04:33.185Z,90.80
2018-03-22T08:05:36.435Z,90.60
2018-03-22T08:06:39.796Z,90.40
2018-03-22T08:07:43.760Z,90.60
2018-03-22T08:08:47.756Z,90.50
2018-03-22T08:09:50.986Z,90.50
2018-03-22T08:10:54.206Z,90.00
2018-03-22T08:11:57.429Z,89.70
2018-03-22T08:13:01.435Z,89.50
2018-03-22T08:14:05.441Z,89.20
2018-03-22T08:15:08.756Z,89.20
2018-03-22T08:16:12.024Z,89.30
2018-03-22T08:17:15.299Z,89.10
2018-03-22T08:18:18.528Z,89.50
2018-03-22T08:19:21.755Z,89.40
2018-03-22T08:20:25.052Z,89.10
2018-03-22T08:21:28.309Z,88.70
2018-03-22T08:22:32.325Z,88.50
2018-03-22T08:23:35.609Z,88.50
2018-03-22T08:24:39.614Z,87.80
2018-03-22T08:25:43.671Z,87.70
2018-03-22T08:26:46.894Z,87.60
2018-03-22T08:27:50.133Z,87.80
2018-03-22T08:28:53.408Z,87.80
2018-03-22T08:29:56.667Z,87.40
2018-03-22T08:30:59.889Z,87.40
2018-03-22T08:32:03.124Z,87.20
2018-03-22T08:33:06.349Z,86.80
2018-03-22T08:34:09.576Z,86.40
2018-03-22T08:35:12.812Z,86.10
2018-03-22T08:36:16.027Z,85.30
2018-03-22T08:37:20.030Z,85.10
2018-03-22T08:38:23.274Z,85.10
2018-03-22T08:39:26.498Z,85.10
2018-03-22T08:40:30.464Z,85.50
2018-03-22T08:41:33.717Z,85.00
2018-03-22T08:42:37.072Z,84.70
2018-03-22T08:43:40.292Z,83.90
2018-03-22T08:44:43.525Z,82.80
2018-03-22T08:45:47.497Z,81.80
2018-03-22T08:46:50.846Z,81.70
2018-03-22T08:47:54.054Z,81.50
2018-03-22T08:48:57.283Z,81.40
2018-03-22T08:50:01.277Z,81.30
2018-03-22T08:51:05.259Z,81.80
2018-03-22T08:52:08.485Z,81.60
2018-03-22T08:53:12.454Z,81.80
2018-03-22T08:54:15.665Z,81.90
2018-03-22T08:55:18.900Z,81.60
2018-03-22T08:56:22.123Z,81.50
2018-03-22T08:57:25.356Z,81.40
2018-03-22T08:58:28.582Z,80.90
2018-03-22T08:59:32.562Z,81.50
2018-03-22T09:00:36.595Z,82.40
2018-03-22T09:01:39.808Z,81.80
2018-03-22T09:02:43.070Z,81.60
2018-03-22T09:03:46.298Z,81.30
2018-03-22T09:04:49.529Z,81.40
2018-03-22T09:05:52.748Z,80.30
2018-03-22T09:06:56.014Z,79.70
2018-03-22T09:07:59.245Z,79.90
2018-03-22T09:09:02.473Z,79.70
2018-03-22T09:10:05.682Z,78.40
2018-03-22T09:11:08.898Z,78.70
2018-03-22T09:12:12.875Z,78.70
2018-03-22T09:13:16.133Z,78.70
2018-03-22T09:14:19.369Z,78.70
2018-03-22T09:15:22.596Z,79.00
2018-03-22T09:16:25.809Z,77.40
2018-03-22T09:17:29.045Z,77.00
2018-03-22T09:18:32.250Z,77.20
2018-03-22T09:19:35.452Z,78.10
2018-03-22T09:20:38.669Z,78.50
2018-03-22T09:21:42.663Z,77.70
2018-03-22T09:22:46.645Z,78.70
2018-03-22T09:23:49.885Z,78.70
2018-03-22T09:24:53.106Z,78.40
2018-03-22T09:25:56.326Z,78.30
2018-03-22T09:27:05.565Z,77.50
2018-03-22T09:28:08.786Z,77.20
2018-03-22T09:29:11.990Z,77.60
2018-03-22T09:30:15.990Z,75.90
2018-03-22T09:31:19.990Z,74.90
2018-03-22T09:32:23.324Z,74.70
2018-03-22T09:33:26.562Z,75.60
2018-03-22T09:34:29.780Z,77.00
2018-03-22T09:35:32.996Z,77.90
2018-03-22T09:36:36.233Z,77.50
2018-03-22T09:37:39.455Z,78.00
2018-03-22T09:38:42.676Z,78.10
2018-03-22T09:39:46.686Z,77.70
2018-03-22T09:40:50.663Z,78.40
2018-03-22T09:41:53.948Z,78.40
2018-03-22T09:42:57.129Z,78.80
2018-03-22T09:44:00.332Z,78.20
2018-03-22T09:45:04.358Z,77.60
2018-03-22T09:46:07.644Z,77.60
2018-03-22T09:47:10.898Z,77.70
2018-03-22T09:48:14.912Z,77.70
2018-03-22T09:49:18.121Z,77.20
2018-03-22T09:50:21.350Z,76.50
2018-03-22T09:51:25.330Z,76.20
2018-03-22T09:52:28.568Z,76.20
2018-03-22T09:53:31.842Z,75.60
2018-03-22T09:54:35.811Z,76.00
2018-03-22T09:55:39.044Z,75.90
2018-03-22T09:56:42.266Z,76.20
2018-03-22T09:57:45.508Z,76.30
2018-03-22T09:58:48.742Z,76.50
2018-03-22T09:59:51.980Z,75.60
2018-03-22T10:00:55.231Z,75.30
2018-03-22T10:01:59.213Z,75.60
2018-03-22T10:03:02.481Z,75.50
2018-03-22T10:04:05.720Z,74.60
2018-03-22T10:05:08.998Z,74.10
2018-03-22T10:06:12.968Z,73.70
2018-03-22T10:07:16.231Z,73.70
2018-03-22T10:08:19.494Z,74.30
2018-03-22T10:09:22.723Z,72.90
2018-03-22T10:10:25.943Z,73.40
2018-03-22T10:11:29.174Z,73.80
2018-03-22T10:12:32.414Z,73.90
2018-03-22T10:13:35.632Z,74.70
2018-03-22T10:14:38.883Z,75.10
2018-03-22T10:15:42.108Z,75.00
2018-03-22T10:16:45.330Z,74.70
2018-03-22T10:17:48.565Z,72.30
2018-03-22T10:18:51.809Z,72.30
2018-03-22T10:19:55.050Z,71.70
2018-03-22T10:20:58.387Z,73.10
2018-03-22T10:22:01.611Z,72.60
2018-03-22T10:23:04.922Z,71.00
2018-03-22T10:24:08.178Z,68.20
2018-03-22T10:25:11.400Z,67.40
2018-03-22T10:26:14.623Z,66.60
2018-03-22T10:27:17.806Z,65.50
2018-03-22T10:28:21.049Z,64.50
2018-03-22T10:29:24.263Z,62.40
2018-03-22T10:30:27.479Z,65.10
2018-03-22T10:31:30.703Z,63.60
2018-03-22T10:32:33.933Z,62.90
2018-03-22T10:33:37.141Z,62.50
2018-03-22T10:34:41.162Z,57.60
2018-03-22T10:35:45.124Z,56.80
2018-03-22T10:36:48.332Z,56.80
2018-03-22T10:37:51.564Z,58.80
2018-03-22T10:38:54.766Z,58.50
2018-03-22T10:39:57.989Z,56.60
2018-03-22T10:41:01.282Z,57.00
2018-03-22T10:42:04.544Z,57.70
2018-03-22T10:43:07.790Z,56.20
2018-03-22T10:44:11.021Z,56.00
2018-03-22T10:45:14.245Z,56.40
2018-03-22T10:46:17.475Z,55.40
2018-03-22T10:47:21.526Z,53.90
2018-03-22T10:48:24.880Z,53.70
2018-03-22T10:49:28.057Z,55.00
2018-03-22T10:50:31.288Z,54.60
2018-03-22T10:51:34.502Z,55.60
2018-03-22T10:52:38.490Z,54.10
2018-03-22T10:53:41.705Z,54.10
2018-03-22T10:54:44.940Z,55.50
2018-03-22T10:55:48.211Z,54.20
2018-03-22T10:56:51.388Z,52.20
2018-03-22T10:57:54.597Z,50.90
2018-03-22T10:58:57.805Z,51.50
2018-03-22T11:00:01.098Z,52.20
2018-03-22T11:01:10.074Z,52.70
2018-03-22T11:02:18.938Z,52.10
2018-03-22T11:03:26.986Z,51.40
2018-03-22T11:04:30.208Z,51.80
2018-03-22T11:05:33.425Z,51.50
2018-03-22T11:06:36.636Z,52.60
2018-03-22T11:07:39.851Z,51.70
2018-03-22T11:08:43.108Z,51.70
2018-03-22T11:09:46.323Z,51.10
2018-03-22T11:10:49.552Z,49.10
2018-03-22T11:11:52.781Z,48.20
2018-03-22T11:12:55.988Z,46.80
2018-03-22T11:13:59.200Z,46.40
2018-03-22T11:15:02.420Z,46.50
2018-03-22T11:16:06.399Z,47.80
2018-03-22T11:17:09.625Z,47.80
2018-03-22T11:18:12.832Z,47.40
2018-03-22T11:19:16.049Z,47.80
2018-03-22T11:20:19.361Z,47.90
2018-03-22T11:21:22.688Z,47.40
2018-03-22T11:22:25.870Z,46.20
2018-03-22T11:23:29.086Z,44.70
2018-03-22T11:24:32.316Z,44.20
2018-03-22T11:25:35.532Z,44.50
2018-03-22T11:26:38.756Z,46.50
2018-03-22T11:27:41.963Z,46.90
2018-03-22T11:28:45.186Z,47.00
2018-03-22T11:29:48.469Z,47.50
2018-03-22T11:30:51.681Z,47.50
2018-03-22T11:31:55.709Z,48.20
2018-03-22T11:32:58.977Z,48.10
2018-03-22T11:34:02.358Z,48.90
2018-03-22T11:35:05.569Z,49.10
2018-03-22T11:36:08.773Z,47.80
2018-03-22T11:37:12.042Z,47.90
2018-03-22T11:38:15.250Z,46.40
2018-03-22T11:39:18.469Z,46.10
2018-03-22T11:40:21.685Z,45.60
2018-03-22T11:41:24.902Z,44.50
2018-03-22T11:42:28.163Z,43.50
2018-03-22T11:43:31.359Z,42.60
2018-03-22T11:44:34.550Z,42.30
2018-03-22T11:45:37.760Z,43.00
2018-03-22T11:46:40.969Z,43.80
2018-03-22T11:47:44.212Z,45.00
2018-03-22T11:48:48.196Z,46.20
2018-03-22T11:49:51.410Z,46.20
2018-03-22T11:50:54.625Z,47.00
2018-03-22T11:51:57.916Z,46.70
2018-03-22T11:53:01.126Z,46.70
2018-03-22T11:54:04.351Z,46.80
2018-03-22T11:55:07.646Z,47.80
2018-03-22T11:56:11.592Z,46.10
2018-03-22T11:57:14.798Z,46.00
2018-03-22T11:58:18.779Z,46.30
2018-03-22T11:59:22.029Z,46.30
2018-03-22T12:00:25.243Z,46.20
2018-03-22T12:01:28.458Z,45.10
2018-03-22T12:02:31.669Z,44.20
2018-03-22T12:03:34.886Z,43.40
2018-03-22T12:04:38.200Z,42.70
2018-03-22T12:05:42.199Z,43.80
2018-03-22T12:06:46.333Z,43.20
2018-03-22T12:07:49.554Z,43.10
2018-03-22T12:08:52.781Z,44.20
2018-03-22T12:09:56.065Z,45.20
2018-03-22T12:10:59.345Z,45.40
2018-03-22T12:12:02.573Z,44.70
2018-03-22T12:13:05.838Z,44.20
2018-03-22T12:14:09.045Z,43.50
2018-03-22T12:15:12.312Z,41.60
2018-03-22T12:16:15.546Z,39.00
2018-03-22T12:17:19.577Z,37.90
2018-03-22T12:18:23.549Z,38.70
2018-03-22T12:19:27.551Z,39.30
2018-03-22T12:20:31.563Z,39.70
2018-03-22T12:21:35.630Z,39.90
2018-03-22T12:22:38.783Z,39.90
2018-03-22T12:23:42.012Z,39.30
2018-03-22T12:24:45.992Z,40.40
2018-03-22T12:25:49.208Z,40.40
2018-03-22T12:26:52.505Z,39.80
2018-03-22T12:27:55.737Z,39.90
2018-03-22T12:28:58.962Z,40.20
2018-03-22T12:30:02.240Z,40.90
2018-03-22T12:31:06.226Z,40.40
2018-03-22T12:32:10.205Z,40.80
2018-03-22T12:33:13.414Z,40.60
2018-03-22T12:34:17.399Z,41.00
2018-03-22T12:35:20.611Z,41.00
2018-03-22T12:36:23.830Z,41.50
2018-03-22T12:37:27.030Z,41.70
2018-03-22T12:38:30.262Z,42.00
2018-03-22T12:39:33.461Z,42.50
2018-03-22T12:40:36.746Z,42.40
2018-03-22T12:41:40.680Z,42.60
2018-03-22T12:42:43.913Z,42.60
2018-03-22T12:43:47.145Z,43.10
2018-03-22T12:44:50.376Z,43.50
2018-03-22T12:45:53.594Z,43.90
2018-03-22T12:46:56.839Z,44.30
2018-03-22T12:48:00.053Z,44.10
2018-03-22T12:49:03.317Z,44.40
2018-03-22T12:50:07.290Z,43.20
2018-03-22T12:51:11.295Z,42.80
2018-03-22T12:52:15.303Z,41.10
2018-03-22T12:53:18.506Z,41.10
2018-03-22T12:54:21.798Z,41.10
2018-03-22T12:55:25.071Z,41.40
2018-03-22T12:56:28.281Z,41.80
2018-03-22T12:57:31.506Z,40.60
2018-03-22T12:58:35.493Z,39.30
2018-03-22T12:59:38.713Z,39.20
2018-03-22T13:00:41.912Z,39.10
2018-03-22T13:01:45.670Z,39.40
2018-03-22T13:02:49.653Z,37.90
2018-03-22T13:03:53.627Z,37.00
2018-03-22T13:04:56.874Z,36.90
2018-03-22T13:06:00.070Z,35.80
2018-03-22T13:07:03.313Z,36.20
2018-03-22T13:08:07.305Z,34.90
2018-03-22T13:09:11.278Z,34.60
2018-03-22T13:10:14.501Z,34.50
2018-03-22T13:11:18.513Z,34.90
2018-03-22T13:12:21.798Z,34.80
2018-03-22T13:13:25.772Z,34.30
2018-03-22T13:14:28.999Z,34.30
2018-03-22T13:15:32.193Z,34.10
2018-03-22T13:16:35.413Z,33.60
2018-03-22T13:17:38.638Z,32.70
2018-03-22T13:18:41.886Z,32.70
2018-03-22T13:19:45.057Z,33.30
2018-03-22T13:20:48.276Z,34.10
2018-03-22T13:21:51.482Z,34.70
2018-03-22T13:22:54.692Z,35.00
2018-03-22T13:23:57.920Z,35.60
2018-03-22T13:25:01.196Z,36.40
2018-03-22T13:26:05.212Z,36.00
2018-03-22T13:27:09.169Z,35.80
2018-03-22T13:28:12.395Z,35.70
2018-03-22T13:29:15.599Z,35.90
2018-03-22T13:30:18.793Z,36.10
2018-03-22T13:31:22.020Z,35.70
2018-03-22T13:32:26.020Z,34.00
2018-03-22T13:33:30.032Z,32.40
2018-03-22T13:34:34.029Z,31.90
2018-03-22T13:35:38.023Z,32.00
2018-03-22T13:36:41.993Z,32.00
2018-03-22T13:37:45.221Z,32.00